Aragoiania, Brazil
Current Conditions -  °F | °C
As of 10:00 PM on Friday 21 Nov 2014 (Local Time) from SBGO Reporting Station
Thunderstorm Thunderstorm  
Wind Chill: 73°   Ceiling: 8000
Heat Index: 73°   Visibility: 5mi
Dew Point: 66°   Wind: 7mph
Humidity: 78%   Direction: 150°SSE
Pressure: NA   Gusts: NA
Location:  16.91°S, 49.45°W
Report Text: SBGO 220000Z 15006KT 8000 -TSRA SCT035 SCT040CB OVC080 23/19 Q1017
Loading
Personal Weather Stations






























Interactive Weather Map New forecast layout! Learn more

10-Day Weather Forecast

Advertisements
Track Severe Weather on mobile